Ada, Minnesota
Current Conditions -  °F | °C
As of 2:15 PM on Friday 19 Dec 2014 (Local Time) from K3N8 Reporting Station
Haze Haze  
Wind Chill: 15°   Ceiling: 600
Heat Index: 26°   Visibility: 4mi
Dew Point: 25°   Wind: 13mph
Humidity: 94%   Direction: 170°S
Pressure: 30.03"   Gusts: 18mph
Location:  47.3°N, 96.52°W
Report Text: K3N8 192015Z AUTO 17011G16KT 4SM BR OVC006 M03/M04 A3003 RMK AO2 T10321040
Loading
Personal Weather Stations






























Interactive Weather Map New forecast layout! Learn more

10-Day Weather Forecast

Advertisements
Track Severe Weather on mobile